sensor_id;sensor_type;location;lat;lon;timestamp;temperature;humidity
23116;DHT22;11727;52.134;5.052;2023-01-01T00:01:07;14.80;99.90
23116;DHT22;11727;52.134;5.052;2023-01-01T00:03:33;14.80;99.90
23116;DHT22;11727;52.134;5.052;2023-01-01T00:05:58;14.80;99.90
23116;DHT22;11727;52.134;5.052;2023-01-01T00:08:24;14.80;99.90
23116;DHT22;11727;52.134;5.052;2023-01-01T00:10:49;14.80;99.90
23116;DHT22;11727;52.134;5.052;2023-01-01T00:13:15;14.90;99.90
23116;DHT22;11727;52.134;5.052;2023-01-01T00:15:41;14.90;99.90
23116;DHT22;11727;52.134;5.052;2023-01-01T00:18:06;14.90;99.90
23116;DHT22;11727;52.134;5.052;2023-01-01T00:20:32;14.90;99.90
23116;DHT22;11727;52.134;5.052;2023-01-01T00:22:57;14.90;99.90
23116;DHT22;11727;52.134;5.052;2023-01-01T00:25:23;14.90;99.90
23116;DHT22;11727;52.134;5.052;2023-01-01T00:27:50;14.90;99.90
23116;DHT22;11727;52.134;5.052;2023-01-01T00:30:16;14.90;99.90
23116;DHT22;11727;52.134;5.052;2023-01-01T00:32:41;14.90;99.90
23116;DHT22;11727;52.134;5.052;2023-01-01T00:35:07;14.90;99.90
23116;DHT22;11727;52.134;5.052;2023-01-01T00:37:33;14.90;99.90
23116;DHT22;11727;52.134;5.052;2023-01-01T00:39:58;14.90;99.90
23116;DHT22;11727;52.134;5.052;2023-01-01T00:42:24;14.90;99.90
23116;DHT22;11727;52.134;5.052;2023-01-01T00:44:50;14.90;99.90
23116;DHT22;11727;52.134;5.052;2023-01-01T00:47:15;14.90;99.90
23116;DHT22;11727;52.134;5.052;2023-01-01T00:49:41;14.90;99.90
23116;DHT22;11727;52.134;5.052;2023-01-01T00:52:06;14.90;99.90
23116;DHT22;11727;52.134;5.052;2023-01-01T00:54:32;14.80;99.90
23116;DHT22;11727;52.134;5.052;2023-01-01T00:56:57;14.90;99.90
23116;DHT22;11727;52.134;5.052;2023-01-01T00:59:23;14.80;99.90
23116;DHT22;11727;52.134;5.052;2023-01-01T01:01:49;14.90;99.90
23116;DHT22;11727;52.134;5.052;2023-01-01T01:04:14;14.90;99.90
23116;DHT22;11727;52.134;5.052;2023-01-01T01:06:40;14.90;99.90
23116;DHT22;11727;52.134;5.052;2023-01-01T01:09:06;14.90;99.90
23116;DHT22;11727;52.134;5.052;2023-01-01T01:11:32;14.90;99.90
23116;DHT22;11727;52.134;5.052;2023-01-01T01:13:58;14.90;99.90
23116;DHT22;11727;52.134;5.052;2023-01-01T01:16:25;14.90;99.90
23116;DHT22;11727;52.134;5.052;2023-01-01T01:18:52;14.90;99.90
23116;DHT22;11727;52.134;5.052;2023-01-01T01:21:19;14.90;99.90
23116;DHT22;11727;52.134;5.052;2023-01-01T01:23:44;14.90;99.90
23116;DHT22;11727;52.134;5.052;2023-01-01T01:26:16;14.90;99.90
23116;DHT22;11727;52.134;5.052;2023-01-01T01:28:42;14.80;99.90
23116;DHT22;11727;52.134;5.052;2023-01-01T01:31:08;14.80;99.90
23116;DHT22;11727;52.134;5.052;2023-01-01T01:33:34;14.80;99.90
23116;DHT22;11727;52.134;5.052;2023-01-01T01:36:01;14.80;99.90
23116;DHT22;11727;52.134;5.052;2023-01-01T01:38:27;14.80;99.90
23116;DHT22;11727;52.134;5.052;2023-01-01T01:40:53;14.80;99.90
23116;DHT22;11727;52.134;5.052;2023-01-01T01:46:20;14.80;99.90
23116;DHT22;11727;52.134;5.052;2023-01-01T01:48:48;14.80;99.90
23116;DHT22;11727;52.134;5.052;2023-01-01T01:51:19;14.70;99.90
23116;DHT22;11727;52.134;5.052;2023-01-01T01:53:49;14.70;99.90
23116;DHT22;11727;52.134;5.052;2023-01-01T01:56:20;14.70;99.90
23116;DHT22;11727;52.134;5.052;2023-01-01T01:58:48;14.70;99.90
23116;DHT22;11727;52.134;5.052;2023-01-01T02:01:14;14.70;99.90
23116;DHT22;11727;52.134;5.052;2023-01-01T02:03:57;14.70;99.90
23116;DHT22;11727;52.134;5.052;2023-01-01T02:06:27;14.70;99.90
23116;DHT22;11727;52.134;5.052;2023-01-01T02:08:55;14.70;99.90
23116;DHT22;11727;52.134;5.052;2023-01-01T02:11:21;14.70;99.90
23116;DHT22;11727;52.134;5.052;2023-01-01T02:13:46;14.70;99.90
23116;DHT22;11727;52.134;5.052;2023-01-01T02:21:45;14.70;99.90
23116;DHT22;11727;52.134;5.052;2023-01-01T02:24:42;14.70;99.90
23116;DHT22;11727;52.134;5.052;2023-01-01T02:29:57;14.70;99.90
23116;DHT22;11727;52.134;5.052;2023-01-01T02:35:18;14.60;99.90
23116;DHT22;11727;52.134;5.052;2023-01-01T02:38:31;14.60;99.90
23116;DHT22;11727;52.134;5.052;2023-01-01T02:41:02;14.70;99.90
23116;DHT22;11727;52.134;5.052;2023-01-01T02:43:29;14.60;99.90
23116;DHT22;11727;52.134;5.052;2023-01-01T02:45:55;14.60;99.90
23116;DHT22;11727;52.134;5.052;2023-01-01T02:48:42;14.60;99.90
23116;DHT22;11727;52.134;5.052;2023-01-01T02:56:43;14.60;99.90
23116;DHT22;11727;52.134;5.052;2023-01-01T03:04:48;14.50;99.90
23116;DHT22;11727;52.134;5.052;2023-01-01T03:07:44;14.50;99.90
23116;DHT22;11727;52.134;5.052;2023-01-01T03:10:23;14.50;99.90
23116;DHT22;11727;52.134;5.052;2023-01-01T03:12:57;14.50;99.90
23116;DHT22;11727;52.134;5.052;2023-01-01T03:15:31;14.40;99.90
23116;DHT22;11727;52.134;5.052;2023-01-01T03:20:40;14.40;99.90
23116;DHT22;11727;52.134;5.052;2023-01-01T03:23:15;14.40;99.90
23116;DHT22;11727;52.134;5.052;2023-01-01T03:25:45;14.50;99.90
23116;DHT22;11727;52.134;5.052;2023-01-01T03:28:27;14.40;99.90
23116;DHT22;11727;52.134;5.052;2023-01-01T03:30:55;14.40;99.90
23116;DHT22;11727;52.134;5.052;2023-01-01T03:36:13;14.50;99.90
23116;DHT22;11727;52.134;5.052;2023-01-01T03:38:44;14.40;99.90
23116;DHT22;11727;52.134;5.052;2023-01-01T03:46:36;14.40;99.90
23116;DHT22;11727;52.134;5.052;2023-01-01T03:49:04;14.40;99.90
23116;DHT22;11727;52.134;5.052;2023-01-01T03:57:24;14.10;99.90
23116;DHT22;11727;52.134;5.052;2023-01-01T04:03:05;14.10;99.90
23116;DHT22;11727;52.134;5.052;2023-01-01T04:05:35;14.00;99.90
23116;DHT22;11727;52.134;5.052;2023-01-01T04:08:02;14.00;99.90
23116;DHT22;11727;52.134;5.052;2023-01-01T04:10:30;14.00;99.90
23116;DHT22;11727;52.134;5.052;2023-01-01T04:12:57;13.90;99.90
23116;DHT22;11727;52.134;5.052;2023-01-01T04:15:24;13.90;99.90
23116;DHT22;11727;52.134;5.052;2023-01-01T04:17:51;13.80;99.90
23116;DHT22;11727;52.134;5.052;2023-01-01T04:20:17;13.70;99.90
23116;DHT22;11727;52.134;5.052;2023-01-01T04:22:43;13.70;99.90
23116;DHT22;11727;52.134;5.052;2023-01-01T04:25:10;13.60;99.90
23116;DHT22;11727;52.134;5.052;2023-01-01T04:27:36;13.60;99.90
23116;DHT22;11727;52.134;5.052;2023-01-01T04:30:04;13.50;99.90
23116;DHT22;11727;52.134;5.052;2023-01-01T04:32:30;13.40;99.90
23116;DHT22;11727;52.134;5.052;2023-01-01T04:34:56;13.40;99.90
23116;DHT22;11727;52.134;5.052;2023-01-01T04:37:21;13.40;99.90
23116;DHT22;11727;52.134;5.052;2023-01-01T04:39:47;13.30;99.90
23116;DHT22;11727;52.134;5.052;2023-01-01T04:42:13;13.20;99.90
23116;DHT22;11727;52.134;5.052;2023-01-01T04:44:38;13.20;99.90
23116;DHT22;11727;52.134;5.052;2023-01-01T04:47:04;13.10;99.90
23116;DHT22;11727;52.134;5.052;2023-01-01T04:49:30;13.10;99.90
23116;DHT22;11727;52.134;5.052;2023-01-01T04:51:55;13.00;99.90
23116;DHT22;11727;52.134;5.052;2023-01-01T04:54:21;13.00;99.90
23116;DHT22;11727;52.134;5.052;2023-01-01T04:56:47;12.90;99.90
23116;DHT22;11727;52.134;5.052;2023-01-01T04:59:12;12.90;99.90
23116;DHT22;11727;52.134;5.052;2023-01-01T05:01:38;12.80;99.90
23116;DHT22;11727;52.134;5.052;2023-01-01T05:04:03;12.90;99.90
23116;DHT22;11727;52.134;5.052;2023-01-01T05:06:29;12.90;99.90
23116;DHT22;11727;52.134;5.052;2023-01-01T05:08:56;12.80;99.90
23116;DHT22;11727;52.134;5.052;2023-01-01T05:11:27;12.80;99.90
23116;DHT22;11727;52.134;5.052;2023-01-01T05:13:54;12.80;99.90
23116;DHT22;11727;52.134;5.052;2023-01-01T05:16:23;12.80;99.90
23116;DHT22;11727;52.134;5.052;2023-01-01T05:18:49;12.80;99.90
23116;DHT22;11727;52.134;5.052;2023-01-01T05:21:18;12.80;99.90
23116;DHT22;11727;52.134;5.052;2023-01-01T05:23:44;12.80;99.90
23116;DHT22;11727;52.134;5.052;2023-01-01T05:26:15;12.80;99.90
23116;DHT22;11727;52.134;5.052;2023-01-01T05:28:41;12.80;99.90
23116;DHT22;11727;52.134;5.052;2023-01-01T05:31:10;12.80;99.90
23116;DHT22;11727;52.134;5.052;2023-01-01T05:33:36;12.80;99.90
23116;DHT22;11727;52.134;5.052;2023-01-01T05:36:03;12.90;99.90
23116;DHT22;11727;52.134;5.052;2023-01-01T05:38:30;12.90;99.90
23116;DHT22;11727;52.134;5.052;2023-01-01T05:40:56;12.90;99.90
23116;DHT22;11727;52.134;5.052;2023-01-01T05:43:21;12.90;99.90
23116;DHT22;11727;52.134;5.052;2023-01-01T05:45:47;12.90;99.90
23116;DHT22;11727;52.134;5.052;2023-01-01T05:48:12;12.90;99.90
23116;DHT22;11727;52.134;5.052;2023-01-01T05:50:38;12.80;99.90
23116;DHT22;11727;52.134;5.052;2023-01-01T05:53:04;12.80;99.90
23116;DHT22;11727;52.134;5.052;2023-01-01T05:55:29;12.90;99.90
23116;DHT22;11727;52.134;5.052;2023-01-01T05:57:56;12.80;99.90
23116;DHT22;11727;52.134;5.052;2023-01-01T06:00:22;12.90;99.90
23116;DHT22;11727;52.134;5.052;2023-01-01T06:02:48;12.80;99.90
23116;DHT22;11727;52.134;5.052;2023-01-01T06:05:16;12.80;99.90
23116;DHT22;11727;52.134;5.052;2023-01-01T06:07:42;12.80;99.90
23116;DHT22;11727;52.134;5.052;2023-01-01T06:10:08;12.80;99.90
23116;DHT22;11727;52.134;5.052;2023-01-01T06:12:33;12.70;99.90
23116;DHT22;11727;52.134;5.052;2023-01-01T06:14:59;12.70;99.90
23116;DHT22;11727;52.134;5.052;2023-01-01T06:17:25;12.70;99.90
23116;DHT22;11727;52.134;5.052;2023-01-01T06:19:50;12.70;99.90
23116;DHT22;11727;52.134;5.052;2023-01-01T06:22:16;12.70;99.90
23116;DHT22;11727;52.134;5.052;2023-01-01T06:24:41;12.70;99.90
23116;DHT22;11727;52.134;5.052;2023-01-01T06:27:07;12.60;99.90
23116;DHT22;11727;52.134;5.052;2023-01-01T06:29:33;12.60;99.90
23116;DHT22;11727;52.134;5.052;2023-01-01T06:31:58;12.60;99.90
23116;DHT22;11727;52.134;5.052;2023-01-01T06:34:24;12.60;99.90
23116;DHT22;11727;52.134;5.052;2023-01-01T06:36:49;12.60;99.90
23116;DHT22;11727;52.134;5.052;2023-01-01T06:39:15;12.60;99.90
23116;DHT22;11727;52.134;5.052;2023-01-01T06:41:41;12.60;99.90
23116;DHT22;11727;52.134;5.052;2023-01-01T06:44:06;12.50;99.90
23116;DHT22;11727;52.134;5.052;2023-01-01T06:46:34;12.50;99.90
23116;DHT22;11727;52.134;5.052;2023-01-01T06:49:05;12.50;99.90
23116;DHT22;11727;52.134;5.052;2023-01-01T06:51:35;12.40;99.90
23116;DHT22;11727;52.134;5.052;2023-01-01T06:54:02;12.40;99.90
23116;DHT22;11727;52.134;5.052;2023-01-01T06:56:29;12.40;99.90
23116;DHT22;11727;52.134;5.052;2023-01-01T06:58:55;12.40;99.90
23116;DHT22;11727;52.134;5.052;2023-01-01T07:01:22;12.30;99.90
23116;DHT22;11727;52.134;5.052;2023-01-01T07:03:56;12.30;99.90
23116;DHT22;11727;52.134;5.052;2023-01-01T07:06:23;12.30;99.90
23116;DHT22;11727;52.134;5.052;2023-01-01T07:08:49;12.30;99.90
23116;DHT22;11727;52.134;5.052;2023-01-01T07:11:15;12.20;99.90
23116;DHT22;11727;52.134;5.052;2023-01-01T07:13:41;12.20;99.90
23116;DHT22;11727;52.134;5.052;2023-01-01T07:16:07;12.20;99.90
23116;DHT22;11727;52.134;5.052;2023-01-01T07:18:33;12.20;99.90
23116;DHT22;11727;52.134;5.052;2023-01-01T07:21:01;12.10;99.90
23116;DHT22;11727;52.134;5.052;2023-01-01T07:23:29;12.10;99.90
23116;DHT22;11727;52.134;5.052;2023-01-01T07:25:55;12.10;99.90
23116;DHT22;11727;52.134;5.052;2023-01-01T07:28:22;12.00;99.90
23116;DHT22;11727;52.134;5.052;2023-01-01T07:30:48;12.00;99.90
23116;DHT22;11727;52.134;5.052;2023-01-01T07:33:16;12.00;99.90
23116;DHT22;11727;52.134;5.052;2023-01-01T07:35:43;11.90;99.90
23116;DHT22;11727;52.134;5.052;2023-01-01T07:38:12;11.90;99.90
23116;DHT22;11727;52.134;5.052;2023-01-01T07:40:39;11.90;99.90
23116;DHT22;11727;52.134;5.052;2023-01-01T07:43:05;11.90;99.90
23116;DHT22;11727;52.134;5.052;2023-01-01T07:45:32;11.80;99.90
23116;DHT22;11727;52.134;5.052;2023-01-01T07:47:59;11.80;99.90
23116;DHT22;11727;52.134;5.052;2023-01-01T07:50:26;11.80;99.90
23116;DHT22;11727;52.134;5.052;2023-01-01T07:52:52;11.70;99.90
23116;DHT22;11727;52.134;5.052;2023-01-01T07:55:18;11.70;99.90
23116;DHT22;11727;52.134;5.052;2023-01-01T07:57:45;11.70;99.90
23116;DHT22;11727;52.134;5.052;2023-01-01T08:00:14;11.60;99.90
23116;DHT22;11727;52.134;5.052;2023-01-01T08:02:40;11.60;99.90
23116;DHT22;11727;52.134;5.052;2023-01-01T08:05:06;11.60;99.90
23116;DHT22;11727;52.134;5.052;2023-01-01T08:07:32;11.60;99.90
23116;DHT22;11727;52.134;5.052;2023-01-01T08:09:58;11.50;99.90
23116;DHT22;11727;52.134;5.052;2023-01-01T08:12:24;11.50;99.90
23116;DHT22;11727;52.134;5.052;2023-01-01T08:14:50;11.40;99.90
23116;DHT22;11727;52.134;5.052;2023-01-01T08:17:15;11.40;99.90
23116;DHT22;11727;52.134;5.052;2023-01-01T08:19:41;11.40;99.90
23116;DHT22;11727;52.134;5.052;2023-01-01T08:22:07;11.40;99.90
23116;DHT22;11727;52.134;5.052;2023-01-01T08:24:32;11.40;99.90
23116;DHT22;11727;52.134;5.052;2023-01-01T08:26:58;11.40;99.90
23116;DHT22;11727;52.134;5.052;2023-01-01T08:29:23;11.40;99.90
23116;DHT22;11727;52.134;5.052;2023-01-01T08:31:49;11.40;99.90
23116;DHT22;11727;52.134;5.052;2023-01-01T08:34:14;11.30;99.90
23116;DHT22;11727;52.134;5.052;2023-01-01T08:36:40;11.30;99.90
23116;DHT22;11727;52.134;5.052;2023-01-01T08:39:07;11.40;99.90
23116;DHT22;11727;52.134;5.052;2023-01-01T08:41:33;11.30;99.90
23116;DHT22;11727;52.134;5.052;2023-01-01T08:43:59;11.30;99.90
23116;DHT22;11727;52.134;5.052;2023-01-01T08:46:25;11.30;99.90
23116;DHT22;11727;52.134;5.052;2023-01-01T08:48:50;11.30;99.90
23116;DHT22;11727;52.134;5.052;2023-01-01T08:51:16;11.30;99.90
23116;DHT22;11727;52.134;5.052;2023-01-01T08:53:42;11.30;99.90
23116;DHT22;11727;52.134;5.052;2023-01-01T08:56:10;11.30;99.90
23116;DHT22;11727;52.134;5.052;2023-01-01T08:58:38;11.30;99.90
23116;DHT22;11727;52.134;5.052;2023-01-01T09:01:04;11.40;99.90
23116;DHT22;11727;52.134;5.052;2023-01-01T09:03:30;11.40;99.90
23116;DHT22;11727;52.134;5.052;2023-01-01T09:05:56;11.40;99.90
23116;DHT22;11727;52.134;5.052;2023-01-01T09:08:22;11.50;99.90
23116;DHT22;11727;52.134;5.052;2023-01-01T09:10:48;11.50;99.90
23116;DHT22;11727;52.134;5.052;2023-01-01T09:13:18;11.50;99.90
23116;DHT22;11727;52.134;5.052;2023-01-01T09:15:44;11.50;99.90
23116;DHT22;11727;52.134;5.052;2023-01-01T09:18:11;11.60;99.90
23116;DHT22;11727;52.134;5.052;2023-01-01T09:20:37;11.60;99.90
23116;DHT22;11727;52.134;5.052;2023-01-01T09:23:03;11.60;99.90
23116;DHT22;11727;52.134;5.052;2023-01-01T09:25:29;11.60;99.90
23116;DHT22;11727;52.134;5.052;2023-01-01T09:30:23;11.70;99.90
23116;DHT22;11727;52.134;5.052;2023-01-01T09:32:49;11.70;99.90
23116;DHT22;11727;52.134;5.052;2023-01-01T09:35:15;11.80;99.90
23116;DHT22;11727;52.134;5.052;2023-01-01T09:37:40;11.80;99.90
23116;DHT22;11727;52.134;5.052;2023-01-01T09:40:47;11.90;99.90
23116;DHT22;11727;52.134;5.052;2023-01-01T09:46:03;11.90;99.90
23116;DHT22;11727;52.134;5.052;2023-01-01T09:48:31;11.90;99.90
23116;DHT22;11727;52.134;5.052;2023-01-01T09:50:58;12.00;99.90
23116;DHT22;11727;52.134;5.052;2023-01-01T09:53:34;12.00;99.90
23116;DHT22;11727;52.134;5.052;2023-01-01T09:56:03;12.00;99.90
23116;DHT22;11727;52.134;5.052;2023-01-01T09:58:33;12.10;99.90
23116;DHT22;11727;52.134;5.052;2023-01-01T10:01:16;12.10;99.90
23116;DHT22;11727;52.134;5.052;2023-01-01T10:03:48;12.20;99.90
23116;DHT22;11727;52.134;5.052;2023-01-01T10:06:33;12.20;99.90
23116;DHT22;11727;52.134;5.052;2023-01-01T10:09:10;12.30;99.90
23116;DHT22;11727;52.134;5.052;2023-01-01T10:14:17;12.30;99.90
23116;DHT22;11727;52.134;5.052;2023-01-01T10:16:49;12.30;99.90
23116;DHT22;11727;52.134;5.052;2023-01-01T10:19:40;12.40;99.90
23116;DHT22;11727;52.134;5.052;2023-01-01T10:22:14;12.30;99.90
23116;DHT22;11727;52.134;5.052;2023-01-01T10:25:00;12.30;99.90
23116;DHT22;11727;52.134;5.052;2023-01-01T10:27:44;12.30;99.90
23116;DHT22;11727;52.134;5.052;2023-01-01T10:30:21;12.30;99.90
23116;DHT22;11727;52.134;5.052;2023-01-01T10:32:48;12.20;99.90
23116;DHT22;11727;52.134;5.052;2023-01-01T10:35:16;12.30;99.90
23116;DHT22;11727;52.134;5.052;2023-01-01T10:37:43;12.30;99.90
23116;DHT22;11727;52.134;5.052;2023-01-01T10:40:23;12.30;99.90
23116;DHT22;11727;52.134;5.052;2023-01-01T10:42:55;12.30;99.90
23116;DHT22;11727;52.134;5.052;2023-01-01T10:45:52;12.40;99.90
23116;DHT22;11727;52.134;5.052;2023-01-01T10:56:12;12.60;99.90
23116;DHT22;11727;52.134;5.052;2023-01-01T10:58:55;12.60;99.90
23116;DHT22;11727;52.134;5.052;2023-01-01T11:01:31;12.70;99.90
23116;DHT22;11727;52.134;5.052;2023-01-01T11:06:39;12.70;99.90
23116;DHT22;11727;52.134;5.052;2023-01-01T11:09:22;12.70;99.90
23116;DHT22;11727;52.134;5.052;2023-01-01T11:11:55;12.70;99.90
23116;DHT22;11727;52.134;5.052;2023-01-01T11:14:26;12.80;99.90
23116;DHT22;11727;52.134;5.052;2023-01-01T11:16:53;12.80;99.90
23116;DHT22;11727;52.134;5.052;2023-01-01T11:19:28;12.70;99.90
23116;DHT22;11727;52.134;5.052;2023-01-01T11:21:54;12.70;99.90
23116;DHT22;11727;52.134;5.052;2023-01-01T11:26:50;12.70;99.90
23116;DHT22;11727;52.134;5.052;2023-01-01T11:29:27;12.60;99.90
23116;DHT22;11727;52.134;5.052;2023-01-01T11:31:54;12.60;99.90
23116;DHT22;11727;52.134;5.052;2023-01-01T11:36:51;12.60;99.90
23116;DHT22;11727;52.134;5.052;2023-01-01T11:39:26;12.50;99.90
23116;DHT22;11727;52.134;5.052;2023-01-01T11:41:56;12.60;99.90
23116;DHT22;11727;52.134;5.052;2023-01-01T11:44:35;12.60;99.90
23116;DHT22;11727;52.134;5.052;2023-01-01T11:47:03;12.60;99.90
23116;DHT22;11727;52.134;5.052;2023-01-01T11:49:30;12.60;99.90
23116;DHT22;11727;52.134;5.052;2023-01-01T11:51:57;12.60;99.90
23116;DHT22;11727;52.134;5.052;2023-01-01T11:54:32;12.60;99.90
23116;DHT22;11727;52.134;5.052;2023-01-01T11:59:37;12.60;99.90
23116;DHT22;11727;52.134;5.052;2023-01-01T12:02:10;12.60;99.90
23116;DHT22;11727;52.134;5.052;2023-01-01T12:04:47;12.60;99.90
23116;DHT22;11727;52.134;5.052;2023-01-01T12:07:22;12.60;99.90
23116;DHT22;11727;52.134;5.052;2023-01-01T12:10:09;12.60;99.90
23116;DHT22;11727;52.134;5.052;2023-01-01T12:12:56;12.60;99.90
23116;DHT22;11727;52.134;5.052;2023-01-01T12:18:27;12.60;99.90
23116;DHT22;11727;52.134;5.052;2023-01-01T12:21:13;12.60;99.90
23116;DHT22;11727;52.134;5.052;2023-01-01T12:23:40;12.60;99.90
23116;DHT22;11727;52.134;5.052;2023-01-01T12:34:59;12.60;99.90
23116;DHT22;11727;52.134;5.052;2023-01-01T12:37:53;12.60;99.90
23116;DHT22;11727;52.134;5.052;2023-01-01T12:40:45;12.70;99.90
23116;DHT22;11727;52.134;5.052;2023-01-01T12:43:20;12.70;99.90
23116;DHT22;11727;52.134;5.052;2023-01-01T12:52:01;12.70;99.90
23116;DHT22;11727;52.134;5.052;2023-01-01T12:57:42;12.80;99.90
23116;DHT22;11727;52.134;5.052;2023-01-01T13:00:19;12.80;99.90
23116;DHT22;11727;52.134;5.052;2023-01-01T13:03:25;12.70;99.90
23116;DHT22;11727;52.134;5.052;2023-01-01T13:05:55;12.70;99.90
23116;DHT22;11727;52.134;5.052;2023-01-01T13:08:21;12.70;99.90
23116;DHT22;11727;52.134;5.052;2023-01-01T13:10:49;12.70;99.90
23116;DHT22;11727;52.134;5.052;2023-01-01T13:13:16;12.70;99.90
23116;DHT22;11727;52.134;5.052;2023-01-01T13:15:47;12.70;99.90
23116;DHT22;11727;52.134;5.052;2023-01-01T13:21:06;12.70;99.90
23116;DHT22;11727;52.134;5.052;2023-01-01T13:23:43;12.70;99.90
23116;DHT22;11727;52.134;5.052;2023-01-01T13:31:16;12.70;99.90
23116;DHT22;11727;52.134;5.052;2023-01-01T13:33:42;12.70;99.90
23116;DHT22;11727;52.134;5.052;2023-01-01T13:38:49;12.70;99.90
23116;DHT22;11727;52.134;5.052;2023-01-01T13:41:43;12.70;99.90
23116;DHT22;11727;52.134;5.052;2023-01-01T13:44:22;12.70;99.90
23116;DHT22;11727;52.134;5.052;2023-01-01T13:47:07;12.70;99.90
23116;DHT22;11727;52.134;5.052;2023-01-01T13:55:42;12.70;99.90
23116;DHT22;11727;52.134;5.052;2023-01-01T14:04:04;12.60;99.90
23116;DHT22;11727;52.134;5.052;2023-01-01T14:06:36;12.60;99.90
23116;DHT22;11727;52.134;5.052;2023-01-01T14:09:12;12.60;99.90
23116;DHT22;11727;52.134;5.052;2023-01-01T14:11:38;12.60;99.90
23116;DHT22;11727;52.134;5.052;2023-01-01T14:16:51;12.60;99.90
23116;DHT22;11727;52.134;5.052;2023-01-01T14:19:17;12.60;99.90
23116;DHT22;11727;52.134;5.052;2023-01-01T14:21:44;12.60;99.90
23116;DHT22;11727;52.134;5.052;2023-01-01T14:24:14;12.60;99.90
23116;DHT22;11727;52.134;5.052;2023-01-01T14:26:41;12.60;99.90
23116;DHT22;11727;52.134;5.052;2023-01-01T14:29:08;12.60;99.90
23116;DHT22;11727;52.134;5.052;2023-01-01T14:31:37;12.60;99.90
23116;DHT22;11727;52.134;5.052;2023-01-01T14:34:25;12.60;99.90
23116;DHT22;11727;52.134;5.052;2023-01-01T14:36:53;12.60;99.90
23116;DHT22;11727;52.134;5.052;2023-01-01T14:41:53;12.50;99.90
23116;DHT22;11727;52.134;5.052;2023-01-01T14:44:23;12.50;99.90
23116;DHT22;11727;52.134;5.052;2023-01-01T14:46:52;12.50;99.90
23116;DHT22;11727;52.134;5.052;2023-01-01T14:49:27;12.50;99.90
23116;DHT22;11727;52.134;5.052;2023-01-01T14:52:00;12.50;99.90
23116;DHT22;11727;52.134;5.052;2023-01-01T14:54:39;12.50;99.90
23116;DHT22;11727;52.134;5.052;2023-01-01T14:57:29;12.40;99.90
23116;DHT22;11727;52.134;5.052;2023-01-01T14:59:55;12.50;99.90
23116;DHT22;11727;52.134;5.052;2023-01-01T15:02:26;12.50;99.90
23116;DHT22;11727;52.134;5.052;2023-01-01T15:04:53;12.40;99.90
23116;DHT22;11727;52.134;5.052;2023-01-01T15:07:25;12.40;99.90
23116;DHT22;11727;52.134;5.052;2023-01-01T15:09:52;12.40;99.90
23116;DHT22;11727;52.134;5.052;2023-01-01T15:12:21;12.40;99.90
23116;DHT22;11727;52.134;5.052;2023-01-01T15:14:49;12.40;99.90
23116;DHT22;11727;52.134;5.052;2023-01-01T15:17:18;12.40;99.90
23116;DHT22;11727;52.134;5.052;2023-01-01T15:19:46;12.40;99.90
23116;DHT22;11727;52.134;5.052;2023-01-01T15:22:26;12.30;99.90
23116;DHT22;11727;52.134;5.052;2023-01-01T15:24:52;12.30;99.90
23116;DHT22;11727;52.134;5.052;2023-01-01T15:27:29;12.30;99.90
23116;DHT22;11727;52.134;5.052;2023-01-01T15:29:56;12.40;99.90
23116;DHT22;11727;52.134;5.052;2023-01-01T15:32:33;12.40;99.90
23116;DHT22;11727;52.134;5.052;2023-01-01T15:35:02;12.30;99.90
23116;DHT22;11727;52.134;5.052;2023-01-01T15:37:31;12.30;99.90
23116;DHT22;11727;52.134;5.052;2023-01-01T15:40:01;12.30;99.90
23116;DHT22;11727;52.134;5.052;2023-01-01T15:42:31;12.30;99.90
23116;DHT22;11727;52.134;5.052;2023-01-01T15:47:37;12.30;99.90
23116;DHT22;11727;52.134;5.052;2023-01-01T15:50:08;12.40;99.90
23116;DHT22;11727;52.134;5.052;2023-01-01T15:52:34;12.40;99.90
23116;DHT22;11727;52.134;5.052;2023-01-01T15:55:00;12.40;99.90
23116;DHT22;11727;52.134;5.052;2023-01-01T15:57:27;12.40;99.90
23116;DHT22;11727;52.134;5.052;2023-01-01T15:59:53;12.30;99.90
23116;DHT22;11727;52.134;5.052;2023-01-01T16:02:30;12.30;99.90
23116;DHT22;11727;52.134;5.052;2023-01-01T16:04:57;12.40;99.90
23116;DHT22;11727;52.134;5.052;2023-01-01T16:07:24;12.30;99.90
23116;DHT22;11727;52.134;5.052;2023-01-01T16:09:51;12.30;99.90
23116;DHT22;11727;52.134;5.052;2023-01-01T16:12:17;12.30;99.90
23116;DHT22;11727;52.134;5.052;2023-01-01T16:14:43;12.30;99.90
23116;DHT22;11727;52.134;5.052;2023-01-01T16:17:14;12.40;99.90
23116;DHT22;11727;52.134;5.052;2023-01-01T16:19:41;12.30;99.90
23116;DHT22;11727;52.134;5.052;2023-01-01T16:22:14;12.30;99.90
23116;DHT22;11727;52.134;5.052;2023-01-01T16:24:40;12.30;99.90
23116;DHT22;11727;52.134;5.052;2023-01-01T16:27:06;12.20;99.90
23116;DHT22;11727;52.134;5.052;2023-01-01T16:29:31;12.30;99.90
23116;DHT22;11727;52.134;5.052;2023-01-01T16:31:57;12.30;99.90
23116;DHT22;11727;52.134;5.052;2023-01-01T16:34:22;12.30;99.90
23116;DHT22;11727;52.134;5.052;2023-01-01T16:36:48;12.30;99.90
23116;DHT22;11727;52.134;5.052;2023-01-01T16:39:13;12.30;99.90
23116;DHT22;11727;52.134;5.052;2023-01-01T16:41:41;12.20;99.90
23116;DHT22;11727;52.134;5.052;2023-01-01T16:44:10;12.30;99.90
23116;DHT22;11727;52.134;5.052;2023-01-01T16:46:36;12.20;99.90
23116;DHT22;11727;52.134;5.052;2023-01-01T16:49:02;12.20;99.90
23116;DHT22;11727;52.134;5.052;2023-01-01T16:51:29;12.20;99.90
23116;DHT22;11727;52.134;5.052;2023-01-01T16:53:55;12.20;99.90
23116;DHT22;11727;52.134;5.052;2023-01-01T16:56:22;12.20;99.90
23116;DHT22;11727;52.134;5.052;2023-01-01T16:58:47;12.20;99.90
23116;DHT22;11727;52.134;5.052;2023-01-01T17:01:13;12.20;99.90
23116;DHT22;11727;52.134;5.052;2023-01-01T17:03:39;12.20;99.90
23116;DHT22;11727;52.134;5.052;2023-01-01T17:06:06;12.20;99.90
23116;DHT22;11727;52.134;5.052;2023-01-01T17:08:33;12.20;99.90
23116;DHT22;11727;52.134;5.052;2023-01-01T17:11:04;12.20;99.90
23116;DHT22;11727;52.134;5.052;2023-01-01T17:13:32;12.20;99.90
23116;DHT22;11727;52.134;5.052;2023-01-01T17:15:58;12.20;99.90
23116;DHT22;11727;52.134;5.052;2023-01-01T17:18:24;12.20;99.90
23116;DHT22;11727;52.134;5.052;2023-01-01T17:20:50;12.20;99.90
23116;DHT22;11727;52.134;5.052;2023-01-01T17:23:15;12.20;99.90
23116;DHT22;11727;52.134;5.052;2023-01-01T17:25:41;12.20;99.90
23116;DHT22;11727;52.134;5.052;2023-01-01T17:28:06;12.20;99.90
23116;DHT22;11727;52.134;5.052;2023-01-01T17:30:32;12.30;99.90
23116;DHT22;11727;52.134;5.052;2023-01-01T17:32:58;12.20;99.90
23116;DHT22;11727;52.134;5.052;2023-01-01T17:35:23;12.20;99.90
23116;DHT22;11727;52.134;5.052;2023-01-01T17:37:49;12.10;99.90
23116;DHT22;11727;52.134;5.052;2023-01-01T17:40:14;12.10;99.90
23116;DHT22;11727;52.134;5.052;2023-01-01T17:42:40;12.00;99.90
23116;DHT22;11727;52.134;5.052;2023-01-01T17:45:06;11.90;99.90